createdAt,value
2019-02-09T00:01:38.912Z,1.20
2019-02-09T00:04:08.478Z,1.20
2019-02-09T00:06:37.978Z,1.30
2019-02-09T00:09:09.545Z,1.20
2019-02-09T00:11:39.213Z,1.20
2019-02-09T00:14:08.770Z,1.20
2019-02-09T00:16:38.299Z,1.30
2019-02-09T00:19:07.837Z,1.20
2019-02-09T00:21:37.355Z,1.30
2019-02-09T00:24:06.893Z,1.30
2019-02-09T00:26:36.424Z,1.40
2019-02-09T00:29:06.016Z,1.40
2019-02-09T00:31:35.643Z,1.40
2019-02-09T00:34:05.207Z,1.40
2019-02-09T00:36:34.704Z,1.40
2019-02-09T00:39:05.279Z,1.40
2019-02-09T00:41:34.862Z,1.50
2019-02-09T00:44:04.588Z,1.50
2019-02-09T00:46:34.283Z,1.50
2019-02-09T00:49:03.831Z,1.50
2019-02-09T00:51:33.380Z,1.50
2019-02-09T00:54:02.881Z,1.40
2019-02-09T00:56:32.475Z,1.50
2019-02-09T00:59:01.969Z,1.50
2019-02-09T01:01:31.533Z,1.50
2019-02-09T01:04:01.038Z,1.40
2019-02-09T01:06:30.594Z,1.40
2019-02-09T01:09:00.131Z,1.40
2019-02-09T01:11:29.727Z,1.50
2019-02-09T01:13:59.240Z,1.40
2019-02-09T01:16:28.788Z,1.40
2019-02-09T01:18:58.334Z,1.40
2019-02-09T01:21:27.940Z,1.40
2019-02-09T01:23:57.543Z,1.30
2019-02-09T01:26:27.068Z,1.30
2019-02-09T01:28:56.581Z,1.40
2019-02-09T01:31:26.127Z,1.40
2019-02-09T01:33:55.654Z,1.30
2019-02-09T01:36:25.241Z,1.30
2019-02-09T01:38:54.731Z,1.30
2019-02-09T01:41:24.246Z,1.20
2019-02-09T01:43:53.826Z,1.10
2019-02-09T01:46:23.397Z,1.10
2019-02-09T01:48:52.893Z,1.10
2019-02-09T01:51:22.430Z,1.00
2019-02-09T01:53:51.961Z,0.90
2019-02-09T01:56:21.518Z,0.80
2019-02-09T01:58:51.098Z,0.80
2019-02-09T02:01:20.647Z,0.70
2019-02-09T02:03:50.154Z,0.60
2019-02-09T02:06:19.700Z,0.50
2019-02-09T02:08:49.222Z,0.50
2019-02-09T02:11:18.828Z,0.50
2019-02-09T02:13:48.333Z,0.40
2019-02-09T02:16:17.869Z,0.50
2019-02-09T02:18:47.458Z,0.60
2019-02-09T02:21:17.114Z,0.60
2019-02-09T02:23:46.634Z,0.80
2019-02-09T02:26:16.178Z,0.80
2019-02-09T02:28:45.820Z,0.90
2019-02-09T02:31:21.897Z,1.00
2019-02-09T02:33:51.567Z,1.10
2019-02-09T02:36:21.112Z,1.10
2019-02-09T02:38:50.621Z,1.20
2019-02-09T02:41:20.197Z,1.30
2019-02-09T02:43:49.706Z,1.40
2019-02-09T02:46:19.284Z,1.50
2019-02-09T02:48:48.792Z,1.50
2019-02-09T02:51:24.261Z,1.50
2019-02-09T02:53:53.742Z,1.50
2019-02-09T02:56:54.235Z,1.60
2019-02-09T02:59:23.854Z,1.60
2019-02-09T03:01:53.387Z,1.60
2019-02-09T03:04:23.070Z,1.70
2019-02-09T03:06:52.887Z,1.60
2019-02-09T03:09:22.488Z,1.60
2019-02-09T03:11:52.058Z,1.60
2019-02-09T03:14:21.625Z,1.60
2019-02-09T03:16:51.189Z,1.70
2019-02-09T03:19:20.694Z,1.70
2019-02-09T03:21:50.256Z,1.70
2019-02-09T03:24:19.789Z,1.70
2019-02-09T03:26:49.386Z,1.80
2019-02-09T03:29:18.903Z,1.70
2019-02-09T03:31:48.516Z,1.80
2019-02-09T03:34:18.034Z,1.80
2019-02-09T03:36:47.673Z,1.80
2019-02-09T03:39:17.191Z,1.90
2019-02-09T03:41:46.715Z,1.90
2019-02-09T03:44:16.286Z,1.90
2019-02-09T03:46:45.908Z,2.00
2019-02-09T03:49:15.389Z,2.00
2019-02-09T03:51:44.950Z,2.00
2019-02-09T03:54:14.475Z,2.00
2019-02-09T03:56:44.097Z,2.00
2019-02-09T03:59:13.742Z,2.10
2019-02-09T04:01:43.261Z,2.10
2019-02-09T04:04:12.854Z,2.10
2019-02-09T04:06:42.494Z,2.10
2019-02-09T04:09:12.130Z,2.10
2019-02-09T04:11:41.663Z,2.00
2019-02-09T04:14:12.521Z,2.00
2019-02-09T04:16:42.164Z,2.10
2019-02-09T04:19:13.536Z,2.20
2019-02-09T04:21:46.302Z,2.20
2019-02-09T04:24:15.853Z,2.20
2019-02-09T04:26:45.406Z,2.20
2019-02-09T04:29:15.068Z,2.20
2019-02-09T04:31:48.308Z,2.20
2019-02-09T04:34:17.860Z,2.10
2019-02-09T04:36:47.430Z,2.20
2019-02-09T04:39:17.005Z,2.30
2019-02-09T04:41:46.535Z,2.30
2019-02-09T04:44:16.485Z,2.40
2019-02-09T04:46:46.003Z,2.40
2019-02-09T04:49:15.562Z,2.40
2019-02-09T04:51:45.079Z,2.40
2019-02-09T04:54:14.630Z,2.50
2019-02-09T04:56:44.150Z,2.50
2019-02-09T04:59:13.939Z,2.60
2019-02-09T05:01:43.470Z,2.70
2019-02-09T05:04:13.055Z,2.80
2019-02-09T05:06:47.454Z,2.80
2019-02-09T05:09:16.974Z,2.90
2019-02-09T05:11:46.647Z,2.90
2019-02-09T05:14:16.181Z,3.10
2019-02-09T05:16:45.692Z,3.10
2019-02-09T05:19:15.240Z,3.00
2019-02-09T05:21:44.812Z,3.00
2019-02-09T05:24:14.479Z,3.00
2019-02-09T05:26:43.986Z,2.90
2019-02-09T05:29:13.544Z,2.90
2019-02-09T05:31:43.056Z,2.90
2019-02-09T05:34:12.666Z,2.90
2019-02-09T05:36:42.192Z,2.90
2019-02-09T05:39:12.381Z,2.90
2019-02-09T05:41:41.895Z,3.00
2019-02-09T05:44:12.920Z,3.00
2019-02-09T05:46:42.546Z,3.00
2019-02-09T05:49:12.174Z,3.00
2019-02-09T05:51:41.686Z,3.10
2019-02-09T05:54:11.262Z,3.00
2019-02-09T05:56:40.814Z,3.10
2019-02-09T05:59:10.327Z,3.10
2019-02-09T06:01:39.961Z,3.20
2019-02-09T06:04:09.490Z,3.30
2019-02-09T06:06:39.090Z,3.30
2019-02-09T06:09:09.001Z,3.30
2019-02-09T06:11:38.564Z,3.30
2019-02-09T06:14:08.069Z,3.30
2019-02-09T06:16:37.784Z,3.60
2019-02-09T06:19:07.377Z,3.50
2019-02-09T06:21:36.923Z,3.60
2019-02-09T06:24:06.486Z,3.70
2019-02-09T06:26:36.035Z,3.70
2019-02-09T06:29:05.602Z,3.80
2019-02-09T06:31:40.596Z,3.90
2019-02-09T06:34:06.493Z,4.00
2019-02-09T06:36:36.095Z,4.00
2019-02-09T06:39:08.247Z,4.10
2019-02-09T06:41:37.757Z,4.10
2019-02-09T06:44:07.334Z,4.10
2019-02-09T06:46:36.901Z,4.10
2019-02-09T06:49:06.504Z,4.00
2019-02-09T06:51:36.002Z,4.00
2019-02-09T06:54:05.725Z,4.00
2019-02-09T06:56:35.234Z,3.90
2019-02-09T06:59:04.880Z,3.90
2019-02-09T07:01:34.405Z,4.00
2019-02-09T07:04:03.958Z,3.90
2019-02-09T07:06:33.555Z,3.90
2019-02-09T07:09:03.273Z,3.90
2019-02-09T07:11:32.806Z,3.90
2019-02-09T07:14:02.689Z,3.90
2019-02-09T07:16:32.350Z,4.00
2019-02-09T07:19:01.906Z,4.10
2019-02-09T07:21:31.396Z,4.20
2019-02-09T07:24:01.520Z,4.30
2019-02-09T07:26:31.013Z,4.30
2019-02-09T07:29:00.571Z,4.30
2019-02-09T07:31:30.162Z,4.30
2019-02-09T07:34:00.379Z,4.40
2019-02-09T07:36:30.476Z,4.30
2019-02-09T07:39:00.466Z,4.50
2019-02-09T07:41:30.486Z,4.50
2019-02-09T07:44:00.485Z,4.50
2019-02-09T07:46:30.627Z,4.60
2019-02-09T07:49:01.230Z,4.70
2019-02-09T07:51:31.257Z,4.90
2019-02-09T07:54:02.010Z,5.00
2019-02-09T07:56:32.092Z,5.00
2019-02-09T07:59:02.198Z,5.10
2019-02-09T08:01:32.266Z,5.20
2019-02-09T08:04:02.498Z,5.30
2019-02-09T08:06:32.692Z,5.50
2019-02-09T08:11:39.947Z,5.50
2019-02-09T08:14:09.546Z,5.60
2019-02-09T08:16:39.086Z,5.60
2019-02-09T08:19:08.723Z,5.70
2019-02-09T08:21:38.247Z,5.80
2019-02-09T08:24:07.795Z,5.90
2019-02-09T08:26:37.365Z,6.00
2019-02-09T08:29:07.002Z,6.10
2019-02-09T08:31:37.049Z,6.20
2019-02-09T08:34:06.742Z,6.10
2019-02-09T08:36:36.426Z,6.00
2019-02-09T08:39:08.619Z,6.00
2019-02-09T08:41:38.173Z,6.00
2019-02-09T08:44:07.737Z,5.90
2019-02-09T08:46:37.339Z,5.90
2019-02-09T08:49:06.918Z,6.00
2019-02-09T08:51:36.994Z,6.10
2019-02-09T08:54:06.524Z,6.20
2019-02-09T08:56:37.252Z,6.30
2019-02-09T08:59:06.772Z,6.50
2019-02-09T09:01:36.375Z,6.40
2019-02-09T09:04:06.121Z,6.50
2019-02-09T09:06:35.737Z,6.40
2019-02-09T09:09:10.086Z,6.40
2019-02-09T09:11:39.667Z,6.30
2019-02-09T09:14:09.291Z,6.30
2019-02-09T09:16:38.827Z,6.30
2019-02-09T09:19:08.398Z,6.30
2019-02-09T09:21:37.946Z,6.40
2019-02-09T09:24:07.459Z,6.60
2019-02-09T09:26:37.022Z,6.60
2019-02-09T09:29:06.574Z,6.70
2019-02-09T09:31:36.697Z,6.60
2019-02-09T09:34:06.346Z,6.60
2019-02-09T09:36:35.869Z,6.60
2019-02-09T09:39:08.765Z,6.60
2019-02-09T09:41:38.346Z,6.70
2019-02-09T09:44:07.869Z,6.70
2019-02-09T09:46:37.429Z,6.90
2019-02-09T09:49:06.951Z,7.00
2019-02-09T09:51:36.546Z,7.20
2019-02-09T09:54:06.356Z,7.30
2019-02-09T09:56:35.918Z,7.40
2019-02-09T09:59:05.689Z,7.40
2019-02-09T10:01:35.226Z,7.60
2019-02-09T10:04:04.891Z,7.70
2019-02-09T10:06:34.554Z,7.80
2019-02-09T10:09:05.677Z,7.90
2019-02-09T10:11:35.306Z,8.00
2019-02-09T10:14:08.855Z,8.00
2019-02-09T10:16:36.602Z,8.10
2019-02-09T10:19:06.147Z,8.30
2019-02-09T10:21:35.815Z,8.40
2019-02-09T10:24:05.716Z,8.50
2019-02-09T10:26:35.618Z,8.60
2019-02-09T10:29:05.157Z,8.70
2019-02-09T10:31:34.687Z,8.70
2019-02-09T10:34:04.239Z,9.00
2019-02-09T10:36:33.808Z,9.10
2019-02-09T10:39:03.477Z,9.10
2019-02-09T10:41:33.011Z,9.10
2019-02-09T10:44:04.187Z,9.20
2019-02-09T10:46:33.713Z,9.30
2019-02-09T10:49:03.292Z,9.20
2019-02-09T10:51:32.950Z,9.20
2019-02-09T10:54:02.508Z,9.30
2019-02-09T10:56:32.081Z,9.30
2019-02-09T10:59:01.575Z,9.30
2019-02-09T11:01:31.114Z,9.30
2019-02-09T11:04:00.644Z,9.40
2019-02-09T11:06:30.187Z,9.40
2019-02-09T11:08:59.942Z,9.50
2019-02-09T11:11:29.489Z,9.40
2019-02-09T11:13:59.005Z,9.40
2019-02-09T11:16:32.654Z,9.40
2019-02-09T11:19:02.168Z,9.30
2019-02-09T11:21:31.736Z,9.30
2019-02-09T11:24:01.304Z,9.10
2019-02-09T11:26:30.818Z,9.00
2019-02-09T11:29:00.456Z,8.90
2019-02-09T11:31:30.113Z,8.80
2019-02-09T11:33:59.684Z,8.90
2019-02-09T11:36:29.394Z,8.80
2019-02-09T11:38:58.987Z,8.90
2019-02-09T11:41:28.561Z,9.00
2019-02-09T11:43:58.102Z,9.00
2019-02-09T11:46:27.608Z,9.00
2019-02-09T11:48:57.158Z,9.10
2019-02-09T11:51:26.705Z,9.00
2019-02-09T11:53:56.298Z,9.20
2019-02-09T11:56:25.940Z,9.30
2019-02-09T11:58:55.438Z,9.40
2019-02-09T12:01:24.962Z,9.40
2019-02-09T12:03:54.530Z,9.40
2019-02-09T12:06:24.121Z,9.40
2019-02-09T12:08:54.025Z,9.50
2019-02-09T12:11:23.539Z,9.40
2019-02-09T12:13:55.426Z,9.30
2019-02-09T12:16:24.347Z,9.60
2019-02-09T12:18:53.855Z,9.60
2019-02-09T12:21:23.393Z,9.60
2019-02-09T12:23:52.936Z,9.40
2019-02-09T12:26:22.488Z,9.50
2019-02-09T12:28:52.019Z,9.20
2019-02-09T12:31:21.553Z,9.10
2019-02-09T12:33:51.081Z,9.10
2019-02-09T12:36:20.667Z,9.20
2019-02-09T12:38:50.297Z,9.20
2019-02-09T12:41:19.835Z,9.40
2019-02-09T12:43:49.355Z,9.60
2019-02-09T12:46:18.922Z,9.90
2019-02-09T12:48:48.445Z,10.20
2019-02-09T12:51:18.002Z,10.50
2019-02-09T12:53:47.509Z,10.60
2019-02-09T12:56:17.094Z,10.70
2019-02-09T12:58:46.630Z,10.60
2019-02-09T13:01:16.273Z,10.30
2019-02-09T13:03:45.812Z,10.20
2019-02-09T13:06:15.550Z,10.30
2019-02-09T13:08:45.098Z,10.30
2019-02-09T13:11:14.647Z,10.30
2019-02-09T13:13:44.282Z,10.20
2019-02-09T13:16:13.875Z,10.20
2019-02-09T13:18:43.489Z,10.50
2019-02-09T13:21:13.083Z,10.70
2019-02-09T13:23:42.645Z,10.90
2019-02-09T13:26:12.248Z,11.00
2019-02-09T13:28:41.774Z,11.00
2019-02-09T13:31:11.356Z,10.70
2019-02-09T13:33:40.909Z,10.80
2019-02-09T13:36:10.508Z,10.70
2019-02-09T13:38:40.070Z,10.80
2019-02-09T13:41:09.757Z,10.60
2019-02-09T13:43:39.286Z,10.40
2019-02-09T13:46:08.828Z,10.40
2019-02-09T13:48:38.442Z,10.40
2019-02-09T13:51:08.085Z,10.30
2019-02-09T13:53:37.666Z,10.20
2019-02-09T13:56:07.214Z,10.30
2019-02-09T13:58:36.818Z,10.30
2019-02-09T14:01:06.424Z,10.30
2019-02-09T14:03:35.939Z,10.20
2019-02-09T14:06:08.233Z,10.10
2019-02-09T14:08:36.935Z,10.10
2019-02-09T14:11:06.603Z,10.00
2019-02-09T14:13:36.120Z,10.00
2019-02-09T14:16:08.057Z,9.90
2019-02-09T14:18:36.990Z,10.00
2019-02-09T14:21:06.568Z,10.00
2019-02-09T14:23:36.217Z,9.90
2019-02-09T14:26:06.075Z,9.80
2019-02-09T14:28:35.590Z,9.80
2019-02-09T14:31:05.386Z,9.80
2019-02-09T14:33:34.937Z,9.80
2019-02-09T14:36:04.528Z,9.80
2019-02-09T14:38:34.078Z,9.70
2019-02-09T14:41:03.861Z,9.60
2019-02-09T14:43:33.498Z,9.60
2019-02-09T14:46:03.014Z,9.60
2019-02-09T14:48:32.548Z,9.60
2019-02-09T14:51:02.801Z,9.50
2019-02-09T14:53:32.319Z,9.50
2019-02-09T14:56:01.940Z,9.50
2019-02-09T14:58:31.516Z,9.40
2019-02-09T15:01:01.050Z,9.40
2019-02-09T15:03:30.915Z,9.40
2019-02-09T15:06:00.724Z,9.30
2019-02-09T15:08:30.561Z,9.20
2019-02-09T15:11:00.159Z,9.20
2019-02-09T15:13:30.790Z,9.20
2019-02-09T15:16:24.415Z,9.20
2019-02-09T15:18:53.958Z,9.20
2019-02-09T15:21:23.499Z,9.30
2019-02-09T15:23:53.151Z,9.20
2019-02-09T15:26:22.762Z,9.30
2019-02-09T15:28:52.618Z,9.20
2019-02-09T15:31:22.337Z,9.20
2019-02-09T15:33:52.037Z,9.20
2019-02-09T15:36:22.978Z,9.10
2019-02-09T15:38:52.781Z,9.00
2019-02-09T15:41:22.574Z,9.00
2019-02-09T15:43:52.270Z,8.90
2019-02-09T15:46:22.215Z,8.90
2019-02-09T15:48:51.962Z,8.90
2019-02-09T15:51:21.870Z,8.80
2019-02-09T15:53:51.342Z,8.70
2019-02-09T15:56:20.879Z,8.70
2019-02-09T15:58:50.434Z,8.70
2019-02-09T16:01:20.367Z,8.60
2019-02-09T16:03:50.005Z,8.50
2019-02-09T16:06:19.512Z,8.40
2019-02-09T16:08:49.019Z,8.30
2019-02-09T16:11:18.556Z,8.20
2019-02-09T16:13:48.094Z,8.10
2019-02-09T16:16:17.865Z,8.00
2019-02-09T16:18:47.482Z,7.90
2019-02-09T16:21:16.981Z,7.80
2019-02-09T16:23:46.644Z,7.70
2019-02-09T16:26:16.153Z,7.60
2019-02-09T16:28:50.651Z,7.50
2019-02-09T16:31:20.240Z,7.50
2019-02-09T16:33:49.950Z,7.60
2019-02-09T16:36:20.982Z,7.70
2019-02-09T16:38:50.671Z,7.70
2019-02-09T16:41:20.218Z,7.70
2019-02-09T16:43:49.921Z,7.60
2019-02-09T16:46:19.426Z,7.60
2019-02-09T16:48:49.178Z,7.60
2019-02-09T16:51:18.705Z,7.60
2019-02-09T16:53:48.304Z,7.50
2019-02-09T16:56:17.845Z,7.50
2019-02-09T16:58:47.828Z,7.50
2019-02-09T17:01:17.770Z,7.50
2019-02-09T17:03:47.633Z,7.50
2019-02-09T17:06:17.673Z,7.50
2019-02-09T17:08:47.164Z,7.60
2019-02-09T17:11:16.686Z,7.60
2019-02-09T17:13:46.237Z,7.50
2019-02-09T17:16:15.788Z,7.50
2019-02-09T17:18:45.552Z,7.50
2019-02-09T17:21:15.678Z,7.50
2019-02-09T17:23:45.550Z,7.50
2019-02-09T17:26:15.180Z,7.50
2019-02-09T17:28:44.795Z,7.50
2019-02-09T17:31:14.441Z,7.40
2019-02-09T17:33:44.040Z,7.40
2019-02-09T17:36:13.606Z,7.40
2019-02-09T17:38:43.239Z,7.50
2019-02-09T17:41:12.760Z,7.40
2019-02-09T17:43:42.322Z,7.50
2019-02-09T17:46:16.552Z,7.40
2019-02-09T17:48:46.087Z,7.30
2019-02-09T17:51:15.676Z,7.20
2019-02-09T17:53:45.184Z,7.20
2019-02-09T17:56:14.751Z,7.20
2019-02-09T17:58:44.454Z,7.20
2019-02-09T18:01:15.150Z,7.10
2019-02-09T18:03:44.670Z,7.10
2019-02-09T18:06:14.434Z,7.10
2019-02-09T18:08:43.947Z,7.10
2019-02-09T18:11:13.569Z,7.10
2019-02-09T18:13:43.110Z,7.10
2019-02-09T18:16:12.635Z,7.10
2019-02-09T18:18:42.878Z,7.00
2019-02-09T18:21:14.040Z,7.00
2019-02-09T18:23:43.638Z,6.90
2019-02-09T18:26:13.194Z,6.80
2019-02-09T18:28:44.483Z,6.70
2019-02-09T18:31:14.476Z,6.50
2019-02-09T18:33:44.003Z,6.40
2019-02-09T18:36:13.554Z,6.20
2019-02-09T18:38:43.373Z,6.10
2019-02-09T18:41:13.027Z,6.00
2019-02-09T18:43:42.584Z,5.90
2019-02-09T18:46:12.125Z,5.90
2019-02-09T18:48:41.745Z,5.90
2019-02-09T18:51:11.235Z,5.80
2019-02-09T18:53:45.473Z,5.90
2019-02-09T18:56:15.117Z,5.90
2019-02-09T18:58:44.642Z,5.90
2019-02-09T19:01:14.186Z,5.80
2019-02-09T19:03:43.684Z,5.90
2019-02-09T19:06:13.258Z,5.90
2019-02-09T19:08:42.764Z,6.00
2019-02-09T19:11:12.294Z,6.00
2019-02-09T19:13:41.796Z,5.90
2019-02-09T19:16:11.502Z,5.90
2019-02-09T19:18:41.052Z,5.80
2019-02-09T19:21:13.979Z,5.80
2019-02-09T19:23:43.660Z,5.70
2019-02-09T19:26:13.181Z,5.60
2019-02-09T19:28:42.743Z,5.50
2019-02-09T19:31:12.299Z,5.40
2019-02-09T19:33:41.977Z,5.50
2019-02-09T19:36:11.509Z,5.50
2019-02-09T19:38:41.045Z,5.50
2019-02-09T19:41:10.578Z,5.50
2019-02-09T19:43:40.125Z,5.50
2019-02-09T19:46:09.978Z,5.50
2019-02-09T19:48:39.526Z,5.40
2019-02-09T19:51:09.026Z,5.40
2019-02-09T19:53:38.640Z,5.40
2019-02-09T19:56:08.169Z,5.40
2019-02-09T19:58:37.732Z,5.40
2019-02-09T20:01:07.218Z,5.50
2019-02-09T20:03:36.805Z,5.50
2019-02-09T20:06:06.406Z,5.50
2019-02-09T20:08:35.954Z,5.60
2019-02-09T20:11:05.517Z,5.60
2019-02-09T20:13:35.104Z,5.60
2019-02-09T20:16:04.736Z,5.50
2019-02-09T20:18:34.346Z,5.50
2019-02-09T20:21:03.854Z,5.30
2019-02-09T20:23:33.380Z,5.30
2019-02-09T20:26:02.931Z,5.30
2019-02-09T20:28:32.522Z,5.20
2019-02-09T20:31:02.022Z,5.20
2019-02-09T20:33:31.646Z,5.20
2019-02-09T20:36:01.216Z,5.20
2019-02-09T20:38:30.774Z,5.20
2019-02-09T20:41:03.685Z,5.00
2019-02-09T20:43:33.182Z,4.90
2019-02-09T20:46:02.752Z,4.80
2019-02-09T20:48:32.262Z,4.60
2019-02-09T20:51:01.768Z,4.50
2019-02-09T20:53:31.337Z,4.40
2019-02-09T20:56:01.712Z,4.30
2019-02-09T20:58:31.865Z,4.30
2019-02-09T21:01:02.468Z,4.20
2019-02-09T21:03:31.998Z,4.10
2019-02-09T21:06:01.612Z,4.00
2019-02-09T21:08:31.190Z,4.00
2019-02-09T21:11:00.712Z,4.00
2019-02-09T21:13:30.355Z,4.00
2019-02-09T21:15:59.940Z,4.00
2019-02-09T21:18:29.717Z,4.00
2019-02-09T21:20:59.238Z,3.90
2019-02-09T21:23:34.936Z,3.90
2019-02-09T21:26:04.901Z,4.00
2019-02-09T21:32:21.522Z,4.00
2019-02-09T21:34:54.111Z,3.90
2019-02-09T21:37:24.293Z,3.80
2019-02-09T21:39:54.293Z,3.80
2019-02-09T21:42:24.937Z,3.70
2019-02-09T21:44:54.934Z,3.70
2019-02-09T21:47:24.448Z,3.80
2019-02-09T21:49:53.925Z,3.80
2019-02-09T21:52:23.433Z,3.80
2019-02-09T21:54:52.892Z,3.80
2019-02-09T21:57:22.384Z,3.80
2019-02-09T21:59:51.849Z,3.70
2019-02-09T22:02:21.336Z,3.60
2019-02-09T22:04:50.817Z,3.60
2019-02-09T22:07:20.356Z,3.60
2019-02-09T22:09:49.853Z,3.50
2019-02-09T22:12:19.383Z,3.40
2019-02-09T22:14:48.858Z,3.40
2019-02-09T22:17:18.349Z,3.40
2019-02-09T22:19:53.176Z,3.30
2019-02-09T22:22:19.903Z,3.40
2019-02-09T22:24:49.516Z,3.30
2019-02-09T22:27:19.093Z,3.20
2019-02-09T22:29:48.600Z,3.10
2019-02-09T22:32:18.162Z,3.00
2019-02-09T22:34:47.662Z,3.00
2019-02-09T22:37:17.140Z,2.90
2019-02-09T22:39:46.694Z,2.90
2019-02-09T22:42:16.121Z,2.90
2019-02-09T22:44:45.616Z,2.90
2019-02-09T22:47:15.074Z,3.00
2019-02-09T22:49:44.531Z,3.00
2019-02-09T22:52:14.028Z,2.90
2019-02-09T22:54:43.473Z,2.90
2019-02-09T22:57:13.005Z,2.90
2019-02-09T22:59:42.467Z,2.90
2019-02-09T23:02:11.989Z,2.80
2019-02-09T23:05:19.640Z,2.80
2019-02-09T23:07:49.109Z,2.70
2019-02-09T23:10:18.612Z,2.60
2019-02-09T23:12:48.841Z,2.50
2019-02-09T23:15:24.033Z,2.40
2019-02-09T23:17:53.496Z,2.40
2019-02-09T23:20:23.042Z,2.30
2019-02-09T23:22:52.465Z,2.30
2019-02-09T23:25:21.959Z,2.20
2019-02-09T23:27:51.445Z,2.10
2019-02-09T23:30:20.909Z,2.10
2019-02-09T23:32:50.840Z,2.10
2019-02-09T23:35:20.305Z,2.10
2019-02-09T23:37:49.765Z,2.00
2019-02-09T23:40:19.268Z,2.00
2019-02-09T23:42:48.739Z,2.00
2019-02-09T23:45:18.255Z,2.00
2019-02-09T23:47:47.700Z,2.00
2019-02-09T23:50:17.159Z,2.10
2019-02-09T23:52:46.640Z,2.20
2019-02-09T23:55:16.096Z,2.20
2019-02-09T23:57:45.951Z,2.30
